createdAt,value
2019-03-31T00:01:43.617Z,93.50
2019-03-31T00:04:11.417Z,93.40
2019-03-31T00:06:39.195Z,93.40
2019-03-31T00:09:07.800Z,93.30
2019-03-31T00:11:35.815Z,93.30
2019-03-31T00:14:04.049Z,93.60
2019-03-31T00:16:32.509Z,93.70
2019-03-31T00:19:00.413Z,93.40
2019-03-31T00:21:29.285Z,93.20
2019-03-31T00:23:57.254Z,93.30
2019-03-31T00:26:26.180Z,93.40
2019-03-31T00:28:53.936Z,93.10
2019-03-31T00:31:22.781Z,93.40
2019-03-31T00:33:50.799Z,93.60
2019-03-31T00:36:18.672Z,93.90
2019-03-31T00:38:46.416Z,94.00
2019-03-31T00:41:14.422Z,94.10
2019-03-31T00:43:42.200Z,93.80
2019-03-31T00:46:10.109Z,94.00
2019-03-31T00:48:37.861Z,93.90
2019-03-31T00:51:05.617Z,94.00
2019-03-31T00:53:33.669Z,94.20
2019-03-31T00:56:01.412Z,94.80
2019-03-31T00:58:29.244Z,94.60
2019-03-31T01:01:17.328Z,94.60
2019-03-31T01:03:45.590Z,94.50
2019-03-31T01:06:15.971Z,94.40
2019-03-31T01:08:44.300Z,94.90
2019-03-31T01:11:15.415Z,94.90
2019-03-31T01:13:44.308Z,95.40
2019-03-31T01:16:13.145Z,94.80
2019-03-31T01:18:41.098Z,94.60
2019-03-31T01:21:08.941Z,94.60
2019-03-31T01:23:37.456Z,94.50
2019-03-31T01:26:05.405Z,94.80
2019-03-31T01:28:34.032Z,94.80
2019-03-31T01:31:02.717Z,94.70
2019-03-31T01:33:31.082Z,94.70
2019-03-31T01:35:59.177Z,94.50
2019-03-31T01:38:26.943Z,94.30
2019-03-31T01:40:54.932Z,94.40
2019-03-31T01:43:23.698Z,94.30
2019-03-31T01:45:51.745Z,94.60
2019-03-31T01:48:19.524Z,94.80
2019-03-31T01:50:47.289Z,95.10
2019-03-31T01:53:15.041Z,95.20
2019-03-31T01:55:43.184Z,95.10
2019-03-31T01:58:11.177Z,95.30
2019-03-31T02:00:42.518Z,95.30
2019-03-31T02:03:10.569Z,95.40
2019-03-31T02:05:38.336Z,95.00
2019-03-31T02:08:06.472Z,94.80
2019-03-31T02:10:34.244Z,94.70
2019-03-31T02:13:02.496Z,95.10
2019-03-31T02:15:30.441Z,95.50
2019-03-31T02:17:58.284Z,96.40
2019-03-31T02:20:26.116Z,95.50
2019-03-31T02:22:54.059Z,95.40
2019-03-31T02:25:22.510Z,96.50
2019-03-31T02:27:50.512Z,96.40
2019-03-31T02:30:18.353Z,96.50
2019-03-31T02:32:46.081Z,96.40
2019-03-31T02:35:15.843Z,96.30
2019-03-31T02:37:43.665Z,96.10
2019-03-31T02:40:11.434Z,95.80
2019-03-31T02:42:39.193Z,95.50
2019-03-31T02:45:07.968Z,95.60
2019-03-31T02:47:35.702Z,95.40
2019-03-31T02:50:03.883Z,95.60
2019-03-31T02:52:31.764Z,95.70
2019-03-31T02:54:59.538Z,95.50
2019-03-31T02:57:27.824Z,95.00
2019-03-31T02:59:57.238Z,95.30
2019-03-31T03:02:40.486Z,95.20
2019-03-31T03:05:17.947Z,95.20
2019-03-31T03:07:31.312Z,95.80
2019-03-31T03:10:00.642Z,96.00
2019-03-31T03:12:32.521Z,95.70
2019-03-31T03:15:02.281Z,95.90
2019-03-31T03:17:30.020Z,96.00
2019-03-31T03:19:57.757Z,96.80
2019-03-31T03:22:25.502Z,96.40
2019-03-31T03:24:53.291Z,97.10
2019-03-31T03:27:21.075Z,96.80
2019-03-31T03:29:49.609Z,96.80
2019-03-31T03:32:17.361Z,97.40
2019-03-31T03:34:45.525Z,97.30
2019-03-31T03:37:13.437Z,96.80
2019-03-31T03:39:42.132Z,97.10
2019-03-31T03:42:10.415Z,96.70
2019-03-31T03:44:38.294Z,96.50
2019-03-31T03:47:06.152Z,96.60
2019-03-31T03:49:34.093Z,96.60
2019-03-31T03:52:02.097Z,96.20
2019-03-31T03:54:31.946Z,96.10
2019-03-31T03:56:59.975Z,96.50
2019-03-31T03:59:27.887Z,96.10
2019-03-31T04:01:57.569Z,97.00
2019-03-31T04:04:25.793Z,97.80
2019-03-31T04:06:53.984Z,97.00
2019-03-31T04:09:22.329Z,96.80
2019-03-31T04:11:50.925Z,96.80
2019-03-31T04:14:18.916Z,97.40
2019-03-31T04:16:47.607Z,97.80
2019-03-31T04:19:15.490Z,98.50
2019-03-31T04:21:43.527Z,98.40
2019-03-31T04:24:11.536Z,98.80
2019-03-31T04:26:39.736Z,99.20
2019-03-31T04:29:07.932Z,99.30
2019-03-31T04:31:35.858Z,98.80
2019-03-31T04:34:03.922Z,98.60
2019-03-31T04:36:31.715Z,98.00
2019-03-31T04:39:00.388Z,98.00
2019-03-31T04:41:28.617Z,97.60
2019-03-31T04:43:56.362Z,97.30
2019-03-31T04:46:24.101Z,97.20
2019-03-31T04:48:51.858Z,97.10
2019-03-31T04:51:19.628Z,97.20
2019-03-31T04:53:47.284Z,97.10
2019-03-31T04:56:15.056Z,96.90
2019-03-31T04:58:42.816Z,96.70
2019-03-31T05:01:10.560Z,97.00
2019-03-31T05:03:38.320Z,97.30
2019-03-31T05:06:06.121Z,97.70
2019-03-31T05:08:33.868Z,97.90
2019-03-31T05:11:01.929Z,98.30
2019-03-31T05:13:29.659Z,97.90
2019-03-31T05:15:57.517Z,97.60
2019-03-31T05:18:25.276Z,97.80
2019-03-31T05:20:53.049Z,97.90
2019-03-31T05:23:20.803Z,98.00
2019-03-31T05:25:48.561Z,97.80
2019-03-31T05:28:16.314Z,97.50
2019-03-31T05:30:44.053Z,97.70
2019-03-31T05:33:11.797Z,97.40
2019-03-31T05:35:39.552Z,97.10
2019-03-31T05:38:07.315Z,97.00
2019-03-31T05:40:35.069Z,97.40
2019-03-31T05:43:03.058Z,98.20
2019-03-31T05:45:31.063Z,98.40
2019-03-31T05:47:58.960Z,98.30
2019-03-31T05:50:26.763Z,98.70
2019-03-31T05:52:54.939Z,98.70
2019-03-31T05:55:22.903Z,98.10
2019-03-31T05:57:50.778Z,98.30
2019-03-31T06:00:31.644Z,97.90
2019-03-31T06:02:59.414Z,97.40
2019-03-31T06:05:27.212Z,97.20
2019-03-31T06:07:54.995Z,97.60
2019-03-31T06:10:23.020Z,97.30
2019-03-31T06:12:51.141Z,96.10
2019-03-31T06:15:19.042Z,97.10
2019-03-31T06:17:46.938Z,94.60
2019-03-31T06:20:14.829Z,94.00
2019-03-31T06:22:42.637Z,93.30
2019-03-31T06:25:10.407Z,92.90
2019-03-31T06:27:38.183Z,92.50
2019-03-31T06:30:06.819Z,92.30
2019-03-31T06:32:34.704Z,91.80
2019-03-31T06:35:02.638Z,91.40
2019-03-31T06:37:30.534Z,91.10
2019-03-31T06:39:58.322Z,91.50
2019-03-31T06:42:26.229Z,91.90
2019-03-31T06:44:54.046Z,91.50
2019-03-31T06:47:21.936Z,91.20
2019-03-31T06:49:49.742Z,90.30
2019-03-31T06:52:17.523Z,91.10
2019-03-31T06:54:45.520Z,91.30
2019-03-31T06:57:13.310Z,92.00
2019-03-31T06:59:41.126Z,90.90
2019-03-31T07:02:09.015Z,90.90
2019-03-31T07:04:36.927Z,90.60
2019-03-31T07:07:04.726Z,90.00
2019-03-31T07:09:32.727Z,90.30
2019-03-31T07:12:00.627Z,90.10
2019-03-31T07:14:28.431Z,88.30
2019-03-31T07:16:56.211Z,89.10
2019-03-31T07:19:24.123Z,88.80
2019-03-31T07:21:52.001Z,89.10
2019-03-31T07:24:19.999Z,87.10
2019-03-31T07:26:47.992Z,86.90
2019-03-31T07:29:15.798Z,86.10
2019-03-31T07:31:43.690Z,86.40
2019-03-31T07:34:11.610Z,84.00
2019-03-31T07:36:40.524Z,83.00
2019-03-31T07:39:08.656Z,83.30
2019-03-31T07:41:36.754Z,82.90
2019-03-31T07:44:04.717Z,83.00
2019-03-31T07:46:32.493Z,82.10
2019-03-31T07:49:00.511Z,83.90
2019-03-31T07:51:28.423Z,84.50
2019-03-31T07:53:56.240Z,84.60
2019-03-31T07:56:24.148Z,83.90
2019-03-31T07:58:51.986Z,83.30
2019-03-31T08:01:20.791Z,84.70
2019-03-31T08:03:49.791Z,84.20
2019-03-31T08:06:17.785Z,84.10
2019-03-31T08:08:45.701Z,83.90
2019-03-31T08:11:16.959Z,82.40
2019-03-31T08:13:43.546Z,82.20
2019-03-31T08:16:11.438Z,80.20
2019-03-31T08:18:39.461Z,84.60
2019-03-31T08:21:07.860Z,79.20
2019-03-31T08:23:35.851Z,80.80
2019-03-31T08:26:03.787Z,79.70
2019-03-31T08:28:31.686Z,80.30
2019-03-31T08:30:59.610Z,77.40
2019-03-31T08:33:27.525Z,78.40
2019-03-31T08:35:55.411Z,78.50
2019-03-31T08:38:24.588Z,78.70
2019-03-31T08:40:52.779Z,76.50
2019-03-31T08:43:20.822Z,77.90
2019-03-31T08:45:48.708Z,78.90
2019-03-31T08:48:16.610Z,77.70
2019-03-31T08:50:44.598Z,76.20
2019-03-31T08:53:12.639Z,77.80
2019-03-31T08:55:40.446Z,77.40
2019-03-31T08:58:08.335Z,75.80
2019-03-31T09:00:45.722Z,76.50
2019-03-31T09:03:13.531Z,76.50
2019-03-31T09:05:41.415Z,76.80
2019-03-31T09:08:09.325Z,76.40
2019-03-31T09:10:37.275Z,72.80
2019-03-31T09:13:05.386Z,74.10
2019-03-31T09:15:33.309Z,72.80
2019-03-31T09:18:01.330Z,73.10
2019-03-31T09:20:29.253Z,72.00
2019-03-31T09:22:57.185Z,72.50
2019-03-31T09:25:25.093Z,70.30
2019-03-31T09:27:53.015Z,68.60
2019-03-31T09:30:21.146Z,68.70
2019-03-31T09:32:49.083Z,67.60
2019-03-31T09:35:17.070Z,66.30
2019-03-31T09:37:44.983Z,66.00
2019-03-31T09:40:13.313Z,67.90
2019-03-31T09:42:41.327Z,64.90
2019-03-31T09:45:09.591Z,62.40
2019-03-31T09:47:38.097Z,63.60
2019-03-31T09:50:07.642Z,65.30
2019-03-31T09:52:35.652Z,62.90
2019-03-31T09:55:04.079Z,63.50
2019-03-31T09:57:32.102Z,62.50
2019-03-31T10:00:00.374Z,65.10
2019-03-31T10:02:28.521Z,63.70
2019-03-31T10:04:56.295Z,61.80
2019-03-31T10:07:24.671Z,61.30
2019-03-31T10:09:52.717Z,64.80
2019-03-31T10:12:20.805Z,65.10
2019-03-31T10:14:48.686Z,63.40
2019-03-31T10:17:16.490Z,62.80
2019-03-31T10:19:44.267Z,60.50
2019-03-31T10:22:12.214Z,59.80
2019-03-31T10:24:40.122Z,60.80
2019-03-31T10:27:08.078Z,59.00
2019-03-31T10:29:36.094Z,60.70
2019-03-31T10:32:04.209Z,58.20
2019-03-31T10:34:31.983Z,60.50
2019-03-31T10:36:59.870Z,60.50
2019-03-31T10:39:28.394Z,62.10
2019-03-31T10:41:56.619Z,58.40
2019-03-31T10:44:24.475Z,61.90
2019-03-31T10:46:52.297Z,60.00
2019-03-31T10:49:20.248Z,59.20
2019-03-31T10:51:48.407Z,58.50
2019-03-31T10:54:16.361Z,58.20
2019-03-31T10:56:44.400Z,58.80
2019-03-31T10:59:12.227Z,57.20
2019-03-31T11:01:40.123Z,55.40
2019-03-31T11:04:08.022Z,55.30
2019-03-31T11:06:35.860Z,56.30
2019-03-31T11:09:05.511Z,55.10
2019-03-31T11:11:33.535Z,54.10
2019-03-31T11:14:01.459Z,53.80
2019-03-31T11:16:29.367Z,55.50
2019-03-31T11:18:57.360Z,53.80
2019-03-31T11:21:33.253Z,55.50
2019-03-31T11:24:01.138Z,55.20
2019-03-31T11:26:28.968Z,56.40
2019-03-31T11:28:56.762Z,55.10
2019-03-31T11:31:24.686Z,55.30
2019-03-31T11:33:52.583Z,53.40
2019-03-31T11:36:20.487Z,52.90
2019-03-31T11:38:48.682Z,55.10
2019-03-31T11:41:16.477Z,55.50
2019-03-31T11:43:45.354Z,55.10
2019-03-31T11:46:13.418Z,53.40
2019-03-31T11:48:41.259Z,56.10
2019-03-31T11:51:09.366Z,55.60
2019-03-31T11:53:37.191Z,55.90
2019-03-31T11:56:05.068Z,55.30
2019-03-31T11:58:32.868Z,56.10
2019-03-31T12:01:00.887Z,54.30
2019-03-31T12:03:30.925Z,56.30
2019-03-31T12:05:58.754Z,55.60
2019-03-31T12:08:26.648Z,56.90
2019-03-31T12:10:54.683Z,57.10
2019-03-31T12:13:22.626Z,56.50
2019-03-31T12:15:50.568Z,56.10
2019-03-31T12:18:18.506Z,56.80
2019-03-31T12:20:46.291Z,58.90
2019-03-31T12:23:14.071Z,58.70
2019-03-31T12:25:41.986Z,55.70
2019-03-31T12:28:09.778Z,54.80
2019-03-31T12:30:37.575Z,56.60
2019-03-31T12:33:05.490Z,54.20
2019-03-31T12:35:33.395Z,54.70
2019-03-31T12:38:01.179Z,53.10
2019-03-31T12:40:33.243Z,53.50
2019-03-31T12:43:01.219Z,53.70
2019-03-31T12:45:29.214Z,53.40
2019-03-31T12:47:57.137Z,52.70
2019-03-31T12:50:24.932Z,50.90
2019-03-31T12:52:52.720Z,51.40
2019-03-31T12:55:20.831Z,52.00
2019-03-31T12:57:51.604Z,51.30
2019-03-31T13:00:18.562Z,50.10
2019-03-31T13:02:46.475Z,50.60
2019-03-31T13:05:14.431Z,52.10
2019-03-31T13:07:55.426Z,53.10
2019-03-31T13:10:12.560Z,52.40
2019-03-31T13:12:40.463Z,54.30
2019-03-31T13:15:08.461Z,54.20
2019-03-31T13:17:36.525Z,53.60
2019-03-31T13:20:05.137Z,53.50
2019-03-31T13:22:33.102Z,53.10
2019-03-31T13:25:02.516Z,52.60
2019-03-31T13:27:30.675Z,52.30
2019-03-31T13:29:58.490Z,50.30
2019-03-31T13:32:26.415Z,50.20
2019-03-31T13:34:54.403Z,49.90
2019-03-31T13:37:22.303Z,50.80
2019-03-31T13:39:50.300Z,53.20
2019-03-31T13:42:18.207Z,50.80
2019-03-31T13:44:46.978Z,52.70
2019-03-31T13:47:14.903Z,53.00
2019-03-31T13:49:42.894Z,55.10
2019-03-31T13:52:10.819Z,54.30
2019-03-31T13:54:38.754Z,55.00
2019-03-31T13:57:07.625Z,56.50
2019-03-31T13:59:36.542Z,55.60
2019-03-31T14:02:04.735Z,57.50
2019-03-31T14:04:35.438Z,55.90
2019-03-31T14:07:04.470Z,56.90
2019-03-31T14:09:32.497Z,56.40
2019-03-31T14:12:00.291Z,56.40
2019-03-31T14:14:28.233Z,57.30
2019-03-31T14:16:56.208Z,57.10
2019-03-31T14:19:24.103Z,58.80
2019-03-31T14:21:52.119Z,55.90
2019-03-31T14:24:20.062Z,55.10
2019-03-31T14:26:48.021Z,54.00
2019-03-31T14:29:16.183Z,55.30
2019-03-31T14:31:44.109Z,53.70
2019-03-31T14:34:12.018Z,55.30
2019-03-31T14:36:40.067Z,57.70
2019-03-31T14:39:08.551Z,55.10
2019-03-31T14:41:36.711Z,55.20
2019-03-31T14:44:04.584Z,55.00
2019-03-31T14:46:32.651Z,55.60
2019-03-31T14:49:00.589Z,58.40
2019-03-31T14:51:28.383Z,58.20
2019-03-31T14:53:56.226Z,59.50
2019-03-31T14:56:24.285Z,60.80
2019-03-31T14:58:52.222Z,57.70
2019-03-31T15:01:21.395Z,58.90
2019-03-31T15:03:49.462Z,58.50
2019-03-31T15:06:17.363Z,58.40
2019-03-31T15:08:54.224Z,59.80
2019-03-31T15:11:15.110Z,57.10
2019-03-31T15:13:43.078Z,57.20
2019-03-31T15:16:11.039Z,56.60
2019-03-31T15:18:38.854Z,57.40
2019-03-31T15:21:06.843Z,57.30
2019-03-31T15:23:34.794Z,57.40
2019-03-31T15:26:02.819Z,57.10
2019-03-31T15:28:30.838Z,57.30
2019-03-31T15:30:58.783Z,56.90
2019-03-31T15:33:26.734Z,57.50
2019-03-31T15:35:55.011Z,57.50
2019-03-31T15:38:23.014Z,56.80
2019-03-31T15:40:50.929Z,56.90
2019-03-31T15:43:18.870Z,58.30
2019-03-31T15:45:46.721Z,56.90
2019-03-31T15:48:14.803Z,57.80
2019-03-31T15:50:42.940Z,57.60
2019-03-31T15:53:10.778Z,58.00
2019-03-31T15:55:38.678Z,57.60
2019-03-31T15:58:06.671Z,57.60
2019-03-31T16:00:34.635Z,56.80
2019-03-31T16:03:02.643Z,57.10
2019-03-31T16:05:30.421Z,57.10
2019-03-31T16:07:57.644Z,56.50
2019-03-31T16:10:24.877Z,56.20
2019-03-31T16:12:52.097Z,55.50
2019-03-31T16:15:19.441Z,56.20
2019-03-31T16:17:46.681Z,57.10
2019-03-31T16:20:14.228Z,56.80
2019-03-31T16:22:41.544Z,56.90
2019-03-31T16:25:21.021Z,58.20
2019-03-31T16:27:48.216Z,58.50
2019-03-31T16:30:15.653Z,58.40
2019-03-31T16:32:42.904Z,58.20
2019-03-31T16:35:10.322Z,58.40
2019-03-31T16:37:37.581Z,57.10
2019-03-31T16:40:05.300Z,58.10
2019-03-31T16:42:32.493Z,57.60
2019-03-31T16:44:59.707Z,58.30
2019-03-31T16:47:26.965Z,58.40
2019-03-31T16:49:54.316Z,58.70
2019-03-31T16:52:21.562Z,59.30
2019-03-31T16:54:48.774Z,59.40
2019-03-31T16:57:15.973Z,59.30
2019-03-31T16:59:43.174Z,59.70
2019-03-31T17:02:10.412Z,59.30
2019-03-31T17:04:37.672Z,59.70
2019-03-31T17:07:04.924Z,60.60
2019-03-31T17:09:32.161Z,59.70
2019-03-31T17:11:59.610Z,58.70
2019-03-31T17:14:26.812Z,59.00
2019-03-31T17:16:54.072Z,58.60
2019-03-31T17:19:21.338Z,58.30
2019-03-31T17:21:48.584Z,58.80
2019-03-31T17:24:15.896Z,58.20
2019-03-31T17:26:43.205Z,58.50
2019-03-31T17:29:10.421Z,58.40
2019-03-31T17:31:37.636Z,58.50
2019-03-31T17:34:04.934Z,58.10
2019-03-31T17:36:32.168Z,58.70
2019-03-31T17:38:59.373Z,58.50
2019-03-31T17:41:26.600Z,58.40
2019-03-31T17:43:53.892Z,58.60
2019-03-31T17:46:21.209Z,58.90
2019-03-31T17:48:48.413Z,59.00
2019-03-31T17:51:15.653Z,59.30
2019-03-31T17:53:42.865Z,58.90
2019-03-31T17:56:10.057Z,58.90
2019-03-31T17:58:37.326Z,58.80
2019-03-31T18:01:05.549Z,58.80
2019-03-31T18:03:32.764Z,59.40
2019-03-31T18:06:00.032Z,60.30
2019-03-31T18:08:27.256Z,60.80
2019-03-31T18:10:54.584Z,62.20
2019-03-31T18:13:22.003Z,63.20
2019-03-31T18:15:49.434Z,64.10
2019-03-31T18:18:16.668Z,64.80
2019-03-31T18:20:43.951Z,65.20
2019-03-31T18:23:11.233Z,65.50
2019-03-31T18:25:38.442Z,65.60
2019-03-31T18:28:05.750Z,66.00
2019-03-31T18:30:32.956Z,66.20
2019-03-31T18:33:00.398Z,66.40
2019-03-31T18:35:27.606Z,66.80
2019-03-31T18:37:54.816Z,66.30
2019-03-31T18:40:34.373Z,66.10
2019-03-31T18:42:51.137Z,66.50
2019-03-31T18:45:18.336Z,66.20
2019-03-31T18:47:45.561Z,66.30
2019-03-31T18:50:13.021Z,66.70
2019-03-31T18:52:40.364Z,66.70
2019-03-31T18:55:36.321Z,67.00
2019-03-31T18:58:21.232Z,66.60
2019-03-31T19:00:57.408Z,66.70
2019-03-31T19:03:41.568Z,67.20
2019-03-31T19:06:24.853Z,67.60
2019-03-31T19:09:12.625Z,67.70
2019-03-31T19:11:49.048Z,67.30
2019-03-31T19:14:34.337Z,67.60
2019-03-31T19:17:27.859Z,67.80
2019-03-31T19:20:30.285Z,68.20
2019-03-31T19:23:07.356Z,68.70
2019-03-31T19:25:42.805Z,69.30
2019-03-31T19:28:27.187Z,69.50
2019-03-31T19:31:23.273Z,69.10
2019-03-31T19:34:08.737Z,69.30
2019-03-31T19:36:43.997Z,69.90
2019-03-31T19:39:27.831Z,70.10
2019-03-31T19:42:29.298Z,70.50
2019-03-31T19:45:14.959Z,71.50
2019-03-31T19:47:50.952Z,71.70
2019-03-31T19:50:46.601Z,71.90
2019-03-31T19:53:42.536Z,72.10
2019-03-31T19:56:31.881Z,72.80
2019-03-31T19:59:21.418Z,72.60
2019-03-31T20:02:14.309Z,73.10
2019-03-31T20:05:00.244Z,73.60
2019-03-31T20:07:47.360Z,73.80
2019-03-31T20:10:34.208Z,74.40
2019-03-31T20:13:26.941Z,74.60
2019-03-31T20:16:13.892Z,75.20
2019-03-31T20:18:56.047Z,75.50
2019-03-31T20:21:34.216Z,75.90
2019-03-31T20:24:17.912Z,76.00
2019-03-31T20:26:53.549Z,76.70
2019-03-31T20:29:40.140Z,77.30
2019-03-31T20:32:35.552Z,78.00
2019-03-31T20:35:25.156Z,78.60
2019-03-31T20:38:13.288Z,79.40
2019-03-31T20:41:00.144Z,80.20
2019-03-31T20:43:47.832Z,80.80
2019-03-31T20:46:15.009Z,81.60
2019-03-31T20:48:42.204Z,82.00
2019-03-31T20:51:09.412Z,82.40
2019-03-31T20:53:36.612Z,82.10
2019-03-31T20:56:03.981Z,81.80
2019-03-31T20:58:31.172Z,81.50
2019-03-31T21:00:58.368Z,81.90
2019-03-31T21:03:25.568Z,82.00
2019-03-31T21:05:52.784Z,82.20
2019-03-31T21:08:19.968Z,82.30
2019-03-31T21:10:47.168Z,82.60
2019-03-31T21:13:14.377Z,82.10
2019-03-31T21:15:41.573Z,82.80
2019-03-31T21:18:08.790Z,83.20
2019-03-31T21:20:36.145Z,83.40
2019-03-31T21:23:03.349Z,84.20
2019-03-31T21:25:30.540Z,83.00
2019-03-31T21:27:57.746Z,83.10
2019-03-31T21:30:24.950Z,82.90
2019-03-31T21:32:52.184Z,82.90
2019-03-31T21:35:19.416Z,83.10
2019-03-31T21:37:46.612Z,83.60
2019-03-31T21:40:13.808Z,84.00
2019-03-31T21:42:41.064Z,83.40
2019-03-31T21:45:08.365Z,84.10
2019-03-31T21:47:35.713Z,84.10
2019-03-31T21:50:03.504Z,84.50
2019-03-31T21:52:30.719Z,84.60
2019-03-31T21:54:57.921Z,84.90
2019-03-31T21:57:25.120Z,85.10
2019-03-31T21:59:52.332Z,85.80
2019-03-31T22:02:19.550Z,86.30
2019-03-31T22:04:46.757Z,87.20
2019-03-31T22:07:13.985Z,88.00
2019-03-31T22:09:41.289Z,88.30
2019-03-31T22:12:08.488Z,89.60
2019-03-31T22:14:35.720Z,89.00
2019-03-31T22:17:03.036Z,89.20
2019-03-31T22:19:30.254Z,89.30
2019-03-31T22:21:57.437Z,89.40
2019-03-31T22:24:24.740Z,89.60
2019-03-31T22:26:51.934Z,89.80
2019-03-31T22:29:19.153Z,89.80
2019-03-31T22:31:46.387Z,89.90
2019-03-31T22:34:13.997Z,90.00
2019-03-31T22:36:41.200Z,90.10
2019-03-31T22:39:08.616Z,90.10
2019-03-31T22:41:35.811Z,90.20
2019-03-31T22:44:03.081Z,90.20
2019-03-31T22:46:30.376Z,90.30
2019-03-31T22:48:57.580Z,90.40
2019-03-31T22:51:24.772Z,90.40
2019-03-31T22:53:51.971Z,90.40
2019-03-31T22:56:19.177Z,90.40
2019-03-31T22:58:46.393Z,90.40
2019-03-31T23:01:13.604Z,90.40
2019-03-31T23:03:40.813Z,90.60
2019-03-31T23:06:08.007Z,90.70
2019-03-31T23:08:35.228Z,90.80
2019-03-31T23:11:03.068Z,90.80
2019-03-31T23:13:30.316Z,90.80
2019-03-31T23:15:57.670Z,90.70
2019-03-31T23:18:24.888Z,90.50
2019-03-31T23:20:52.065Z,90.40
2019-03-31T23:23:19.278Z,90.30
2019-03-31T23:25:46.477Z,90.40
2019-03-31T23:28:13.696Z,90.10
2019-03-31T23:30:40.904Z,89.50
2019-03-31T23:33:08.097Z,89.80
2019-03-31T23:35:35.292Z,89.80
2019-03-31T23:38:02.492Z,90.20
2019-03-31T23:40:29.693Z,90.00
2019-03-31T23:42:56.887Z,90.50
2019-03-31T23:45:24.208Z,90.60
2019-03-31T23:47:51.408Z,90.90
2019-03-31T23:50:18.596Z,91.00
2019-03-31T23:52:45.793Z,91.10
2019-03-31T23:55:13.012Z,91.00
2019-03-31T23:57:41.110Z,90.70
